createdAt,value
2023-05-05T00:00:28.760Z,101671.07
2023-05-05T00:02:57.086Z,101669.40
2023-05-05T00:05:26.692Z,101663.16
2023-05-05T00:07:54.836Z,101666.03
2023-05-05T00:10:22.906Z,101666.03
2023-05-05T00:12:50.881Z,101664.86
2023-05-05T00:15:19.970Z,101664.01
2023-05-05T00:17:48.118Z,101662.34
2023-05-05T00:20:16.300Z,101668.20
2023-05-05T00:22:44.321Z,101665.31
2023-05-05T00:25:12.379Z,101671.07
2023-05-05T00:27:41.068Z,101668.59
2023-05-05T00:30:09.460Z,101667.73
2023-05-05T00:32:37.899Z,101661.49
2023-05-05T00:35:06.232Z,101668.45
2023-05-05T00:37:34.246Z,101672.15
2023-05-05T00:40:02.244Z,101661.00
2023-05-05T00:42:41.226Z,101667.12
2023-05-05T00:45:10.091Z,101660.54
2023-05-05T00:47:38.233Z,101661.09
2023-05-05T00:50:09.423Z,101654.88
2023-05-05T00:52:38.370Z,101658.09
2023-05-05T00:55:06.980Z,101657.47
2023-05-05T00:57:35.162Z,101659.85
2023-05-05T01:00:03.821Z,101654.82
2023-05-05T01:02:32.750Z,101659.56
2023-05-05T01:05:01.567Z,101670.22
2023-05-05T01:07:47.167Z,101658.97
2023-05-05T01:10:32.490Z,101667.93
2023-05-05T01:13:12.308Z,101671.49
2023-05-05T01:16:05.887Z,101660.37
2023-05-05T01:18:56.949Z,101661.91
2023-05-05T01:21:32.689Z,101665.48
2023-05-05T01:24:27.752Z,101657.93
2023-05-05T01:27:17.559Z,101662.47
2023-05-05T01:30:22.849Z,101658.61
2023-05-05T01:32:58.214Z,101655.73
2023-05-05T01:35:31.170Z,101659.43
2023-05-05T01:38:05.755Z,101664.01
2023-05-05T01:40:35.316Z,101661.49
2023-05-05T01:43:03.254Z,101666.88
2023-05-05T01:45:33.067Z,101663.65
2023-05-05T01:48:01.068Z,101663.32
2023-05-05T01:50:29.550Z,101664.01
2023-05-05T01:52:57.761Z,101666.20
2023-05-05T01:55:28.990Z,101655.05
2023-05-05T01:57:57.042Z,101655.73
2023-05-05T02:00:26.563Z,101666.39
2023-05-05T02:02:54.951Z,101661.49
2023-05-05T02:05:24.198Z,101661.85
2023-05-05T02:07:52.334Z,101669.96
2023-05-05T02:10:20.389Z,101662.90
2023-05-05T02:12:48.306Z,101662.18
2023-05-05T02:15:16.348Z,101667.44
2023-05-05T02:17:44.672Z,101665.41
2023-05-05T02:20:14.094Z,101664.59
2023-05-05T02:22:42.226Z,101664.20
2023-05-05T02:25:10.761Z,101667.44
2023-05-05T02:27:39.167Z,101659.70
2023-05-05T02:30:09.955Z,101667.44
2023-05-05T02:32:52.140Z,101661.72
2023-05-05T02:35:22.755Z,101666.13
2023-05-05T02:38:01.378Z,101666.46
2023-05-05T02:40:31.012Z,101664.66
2023-05-05T02:43:00.241Z,101660.09
2023-05-05T02:45:28.333Z,101669.89
2023-05-05T02:47:56.353Z,101664.01
2023-05-05T02:50:24.368Z,101667.90
2023-05-05T02:52:52.332Z,101666.23
2023-05-05T02:55:20.303Z,101671.98
2023-05-05T02:57:57.573Z,101665.58
2023-05-05T03:00:28.548Z,101669.50
2023-05-05T03:03:19.265Z,101668.16
2023-05-05T03:06:12.611Z,101668.98
2023-05-05T03:09:00.281Z,101661.91
2023-05-05T03:11:52.328Z,101665.77
2023-05-05T03:14:22.335Z,101667.08
2023-05-05T03:16:50.740Z,101663.38
2023-05-05T03:19:20.033Z,101669.96
2023-05-05T03:21:48.062Z,101662.21
2023-05-05T03:24:17.159Z,101663.06
2023-05-05T03:26:45.718Z,101668.09
2023-05-05T03:29:14.504Z,101664.86
2023-05-05T03:31:42.789Z,101658.84
2023-05-05T03:34:10.875Z,101665.02
2023-05-05T03:36:39.298Z,101663.52
2023-05-05T03:39:07.334Z,101663.65
2023-05-05T03:41:35.411Z,101658.41
2023-05-05T03:44:03.381Z,101660.94
2023-05-05T03:46:31.276Z,101659.76
2023-05-05T03:48:59.340Z,101665.97
2023-05-05T03:51:27.366Z,101666.82
2023-05-05T03:53:55.304Z,101661.42
2023-05-05T03:56:23.414Z,101658.55
2023-05-05T03:58:51.356Z,101657.70
2023-05-05T04:01:19.349Z,101656.52
2023-05-05T04:03:47.529Z,101656.88
2023-05-05T04:06:15.559Z,101657.20
2023-05-05T04:08:43.599Z,101656.36
2023-05-05T04:11:12.003Z,101658.05
2023-05-05T04:13:39.984Z,101657.20
2023-05-05T04:16:08.206Z,101656.03
2023-05-05T04:18:36.272Z,101664.27
2023-05-05T04:21:04.596Z,101661.06
2023-05-05T04:23:32.685Z,101671.04
2023-05-05T04:26:00.676Z,101677.09
2023-05-05T04:28:28.742Z,101672.90
2023-05-05T04:30:56.901Z,101668.68
2023-05-05T04:33:25.037Z,101670.02
2023-05-05T04:35:53.039Z,101669.70
2023-05-05T04:38:22.404Z,101667.63
2023-05-05T04:40:50.475Z,101671.37
2023-05-05T04:43:18.447Z,101684.18
2023-05-05T04:45:55.923Z,101678.43
2023-05-05T04:48:24.020Z,101692.78
2023-05-05T04:50:52.699Z,101699.71
2023-05-05T04:53:20.740Z,101695.66
2023-05-05T04:55:48.754Z,101696.84
2023-05-05T04:58:16.857Z,101691.57
2023-05-05T05:00:44.924Z,101694.94
2023-05-05T05:03:13.493Z,101695.79
2023-05-05T05:05:41.544Z,101703.02
2023-05-05T05:08:09.586Z,101710.08
2023-05-05T05:10:37.807Z,101703.63
2023-05-05T05:13:05.866Z,101703.44
2023-05-05T05:15:33.857Z,101709.78
2023-05-05T05:18:01.885Z,101705.37
2023-05-05T05:20:31.667Z,101717.01
2023-05-05T05:22:59.817Z,101711.41
2023-05-05T05:25:27.865Z,101712.01
2023-05-05T05:30:30.313Z,101712.66
2023-05-05T05:32:58.267Z,101714.82
2023-05-05T05:35:26.335Z,101721.78
2023-05-05T05:37:54.354Z,101707.40
2023-05-05T05:40:22.451Z,101719.40
2023-05-05T05:42:50.929Z,101716.65
2023-05-05T05:45:19.109Z,101709.72
2023-05-05T05:47:47.305Z,101713.41
2023-05-05T05:50:15.340Z,101713.41
2023-05-05T05:52:43.356Z,101708.51
2023-05-05T05:55:11.438Z,101713.54
2023-05-05T05:57:39.410Z,101722.17
2023-05-05T06:00:08.113Z,101717.27
2023-05-05T06:02:36.444Z,101713.22
2023-05-05T06:05:04.568Z,101707.95
2023-05-05T06:07:32.499Z,101707.59
2023-05-05T06:10:10.889Z,101721.75
2023-05-05T06:12:46.965Z,101719.82
2023-05-05T06:15:14.918Z,101724.53
2023-05-05T06:17:42.875Z,101724.66
2023-05-05T06:20:11.515Z,101728.87
2023-05-05T06:22:39.505Z,101721.55
2023-05-05T06:25:08.032Z,101722.41
2023-05-05T06:27:36.216Z,101725.73
2023-05-05T06:30:04.164Z,101721.72
2023-05-05T06:32:32.206Z,101718.45
2023-05-05T06:35:00.369Z,101718.45
2023-05-05T06:37:28.357Z,101722.99
2023-05-05T06:39:56.411Z,101723.16
2023-05-05T06:42:24.453Z,101726.49
2023-05-05T06:44:52.506Z,101723.68
2023-05-05T06:47:20.459Z,101732.02
2023-05-05T06:49:48.522Z,101733.68
2023-05-05T06:52:16.528Z,101729.04
2023-05-05T06:54:45.108Z,101722.30
2023-05-05T06:57:13.176Z,101734.30
2023-05-05T06:59:41.119Z,101735.02
2023-05-05T07:02:09.117Z,101734.08
2023-05-05T07:04:37.911Z,101739.34
2023-05-05T07:07:06.026Z,101736.82
2023-05-05T07:09:34.036Z,101740.19
2023-05-05T07:12:02.062Z,101738.13
2023-05-05T07:14:30.093Z,101738.13
2023-05-05T07:16:58.328Z,101739.83
2023-05-05T07:19:26.494Z,101736.23
2023-05-05T07:21:54.489Z,101728.45
2023-05-05T07:24:22.474Z,101737.18
2023-05-05T07:26:50.388Z,101727.34
2023-05-05T07:29:18.335Z,101732.64
2023-05-05T07:31:46.275Z,101740.42
2023-05-05T07:34:14.371Z,101740.29
2023-05-05T07:36:42.367Z,101735.97
2023-05-05T07:39:10.411Z,101733.72
2023-05-05T07:41:38.396Z,101737.31
2023-05-05T07:44:06.498Z,101735.02
2023-05-05T07:46:34.523Z,101725.90
2023-05-05T07:49:02.625Z,101726.59
2023-05-05T07:51:32.021Z,101722.77
2023-05-05T07:54:01.282Z,101723.12
2023-05-05T07:56:29.315Z,101717.70
2023-05-05T07:58:57.313Z,101714.66
2023-05-05T08:01:25.364Z,101705.17
2023-05-05T08:03:53.469Z,101704.42
2023-05-05T08:06:26.204Z,101704.45
2023-05-05T08:08:54.737Z,101701.51
2023-05-05T08:11:23.483Z,101703.77
2023-05-05T08:13:51.570Z,101706.94
2023-05-05T08:16:19.697Z,101698.34
2023-05-05T08:18:47.995Z,101696.28
2023-05-05T08:21:16.183Z,101701.22
2023-05-05T08:23:44.409Z,101689.28
2023-05-05T08:26:12.481Z,101695.13
2023-05-05T08:28:40.588Z,101691.96
2023-05-05T08:31:09.166Z,101693.73
2023-05-05T08:33:37.203Z,101702.39
2023-05-05T08:36:05.366Z,101692.98
2023-05-05T08:38:33.586Z,101693.14
2023-05-05T08:41:01.636Z,101693.50
2023-05-05T08:43:29.707Z,101691.96
2023-05-05T08:45:58.134Z,101690.39
2023-05-05T08:48:26.146Z,101691.31
2023-05-05T08:50:59.517Z,101684.02
2023-05-05T08:53:41.370Z,101681.27
2023-05-05T08:56:09.442Z,101684.54
2023-05-05T08:58:38.291Z,101675.84
2023-05-05T09:01:08.262Z,101676.66
2023-05-05T09:03:37.048Z,101669.34
2023-05-05T09:06:05.506Z,101677.80
2023-05-05T09:08:33.584Z,101673.78
2023-05-05T09:11:02.164Z,101677.97
2023-05-05T09:13:31.238Z,101675.58
2023-05-05T09:16:02.069Z,101674.34
2023-05-05T09:18:30.275Z,101670.80
2023-05-05T09:20:59.479Z,101664.73
2023-05-05T09:23:27.576Z,101659.92
2023-05-05T09:26:12.111Z,101661.72
2023-05-05T09:28:40.147Z,101659.73
2023-05-05T09:31:15.441Z,101659.46
2023-05-05T09:33:43.499Z,101652.89
2023-05-05T09:36:12.957Z,101646.25
2023-05-05T09:38:40.955Z,101645.44
2023-05-05T09:41:08.855Z,101639.23
2023-05-05T09:43:53.036Z,101638.90
2023-05-05T09:46:21.082Z,101646.35
2023-05-05T09:48:49.318Z,101640.14
2023-05-05T09:51:17.497Z,101640.53
2023-05-05T09:53:45.520Z,101636.80
2023-05-05T09:56:13.529Z,101634.74
2023-05-05T09:58:41.761Z,101633.53
2023-05-05T10:01:22.754Z,101629.41
2023-05-05T10:03:53.981Z,101626.08
2023-05-05T10:06:23.364Z,101624.41
2023-05-05T10:09:02.611Z,101618.62
2023-05-05T10:11:30.697Z,101614.41
2023-05-05T10:13:58.711Z,101606.07
2023-05-05T10:16:27.528Z,101606.53
2023-05-05T10:18:57.081Z,101614.87
2023-05-05T10:21:26.604Z,101601.13
2023-05-05T10:23:59.675Z,101603.20
2023-05-05T10:26:28.057Z,101606.07
2023-05-05T10:28:59.014Z,101601.91
2023-05-05T10:31:31.413Z,101595.25
2023-05-05T10:34:05.114Z,101595.64
2023-05-05T10:36:33.285Z,101600.22
2023-05-05T10:39:01.597Z,101595.57
2023-05-05T10:41:29.684Z,101589.33
2023-05-05T10:44:03.678Z,101593.48
2023-05-05T10:46:32.585Z,101576.84
2023-05-05T10:49:13.461Z,101583.12
2023-05-05T10:51:41.715Z,101580.17
2023-05-05T10:54:22.382Z,101571.02
2023-05-05T10:56:50.341Z,101565.16
2023-05-05T10:59:41.607Z,101549.70
2023-05-05T11:02:26.383Z,101543.49
2023-05-05T11:05:18.962Z,101543.49
2023-05-05T11:07:47.738Z,101544.34
2023-05-05T11:10:16.452Z,101546.01
2023-05-05T11:12:53.418Z,101541.40
2023-05-05T11:15:30.668Z,101526.88
2023-05-05T11:17:59.521Z,101533.95
2023-05-05T11:20:36.727Z,101525.18
2023-05-05T11:23:05.301Z,101521.02
2023-05-05T11:25:36.765Z,101519.33
2023-05-05T11:28:15.923Z,101514.75
2023-05-05T11:30:56.381Z,101515.17
2023-05-05T11:33:37.338Z,101501.05
2023-05-05T11:36:12.969Z,101508.54
2023-05-05T11:38:40.777Z,101503.57
2023-05-05T11:41:11.392Z,101503.60
2023-05-05T11:43:39.706Z,101496.93
2023-05-05T11:46:14.602Z,101496.93
2023-05-05T11:48:49.238Z,101491.08
2023-05-05T11:51:17.840Z,101496.08
2023-05-05T11:53:49.279Z,101488.95
2023-05-05T11:56:23.121Z,101490.20
2023-05-05T11:58:51.254Z,101495.16
2023-05-05T12:01:19.218Z,101478.49
2023-05-05T12:03:47.496Z,101489.24
2023-05-05T12:06:15.593Z,101490.95
2023-05-05T12:08:43.550Z,101491.37
2023-05-05T12:11:12.069Z,101485.95
2023-05-05T12:13:40.183Z,101482.61
2023-05-05T12:16:14.946Z,101476.73
2023-05-05T12:18:43.296Z,101473.72
2023-05-05T12:21:18.558Z,101469.79
2023-05-05T12:23:46.701Z,101474.70
2023-05-05T12:26:31.337Z,101467.14
2023-05-05T12:29:00.174Z,101462.41
2023-05-05T12:31:41.901Z,101469.30
2023-05-05T12:34:11.008Z,101460.73
2023-05-05T12:36:39.136Z,101460.21
2023-05-05T12:39:07.091Z,101453.84
2023-05-05T12:41:35.414Z,101446.97
2023-05-05T12:44:04.421Z,101440.20
2023-05-05T12:46:33.256Z,101439.38
2023-05-05T12:49:02.825Z,101441.84
2023-05-05T12:51:30.819Z,101447.04
2023-05-05T12:54:09.550Z,101439.61
2023-05-05T12:56:42.008Z,101445.59
2023-05-05T12:59:11.017Z,101436.48
2023-05-05T13:01:55.286Z,101432.29
2023-05-05T13:04:25.263Z,101428.56
2023-05-05T13:07:12.969Z,101424.84
2023-05-05T13:09:41.080Z,101425.00
2023-05-05T13:12:13.694Z,101413.69
2023-05-05T13:14:42.149Z,101412.45
2023-05-05T13:17:10.467Z,101404.98
2023-05-05T13:19:43.282Z,101397.50
2023-05-05T13:22:11.541Z,101391.23
2023-05-05T13:24:50.493Z,101402.41
2023-05-05T13:27:21.129Z,101389.85
2023-05-05T13:29:49.393Z,101394.82
2023-05-05T13:32:17.282Z,101379.09
2023-05-05T13:34:45.651Z,101380.34
2023-05-05T13:37:13.791Z,101362.77
2023-05-05T13:39:41.879Z,101365.49
2023-05-05T13:42:10.119Z,101364.58
2023-05-05T13:44:38.200Z,101354.34
2023-05-05T13:47:06.316Z,101349.08
2023-05-05T13:49:34.452Z,101338.13
2023-05-05T13:52:02.863Z,101338.45
2023-05-05T13:54:30.896Z,101333.02
2023-05-05T13:56:59.445Z,101334.69
2023-05-05T13:59:27.439Z,101335.90
2023-05-05T14:01:55.412Z,101336.49
2023-05-05T14:04:23.476Z,101339.04
2023-05-05T14:06:51.555Z,101334.40
2023-05-05T14:09:19.432Z,101331.16
2023-05-05T14:11:47.491Z,101328.05
2023-05-05T14:14:15.574Z,101328.31
2023-05-05T14:16:43.657Z,101326.68
2023-05-05T14:19:11.673Z,101330.54
2023-05-05T14:21:39.793Z,101316.80
2023-05-05T14:24:08.101Z,101318.08
2023-05-05T14:26:36.146Z,101302.68
2023-05-05T14:29:04.129Z,101297.84
2023-05-05T14:31:32.218Z,101297.98
2023-05-05T14:34:00.184Z,101298.66
2023-05-05T14:36:28.183Z,101296.34
2023-05-05T14:38:56.218Z,101286.50
2023-05-05T14:41:24.305Z,101279.47
2023-05-05T14:43:52.461Z,101273.74
2023-05-05T14:46:20.714Z,101266.42
2023-05-05T14:48:49.712Z,101268.16
2023-05-05T14:51:17.724Z,101260.73
2023-05-05T14:53:45.851Z,101264.13
2023-05-05T14:56:13.937Z,101262.98
2023-05-05T14:58:41.905Z,101261.84
2023-05-05T15:01:09.840Z,101272.73
2023-05-05T15:03:38.012Z,101279.04
2023-05-05T15:06:06.934Z,101277.05
2023-05-05T15:08:35.007Z,101279.20
2023-05-05T15:11:03.071Z,101296.73
2023-05-05T15:13:31.467Z,101288.85
2023-05-05T15:15:59.462Z,101289.73
2023-05-05T15:18:27.532Z,101276.46
2023-05-05T15:20:55.413Z,101274.86
2023-05-05T15:23:23.391Z,101283.16
2023-05-05T15:25:51.339Z,101291.07
2023-05-05T15:28:20.094Z,101289.83
2023-05-05T15:30:48.032Z,101279.44
2023-05-05T15:33:16.281Z,101279.50
2023-05-05T15:35:44.326Z,101281.59
2023-05-05T15:38:12.320Z,101291.17
2023-05-05T15:40:40.291Z,101291.63
2023-05-05T15:43:08.246Z,101297.48
2023-05-05T15:45:36.533Z,101305.43
2023-05-05T15:48:04.688Z,101305.00
2023-05-05T15:50:33.033Z,101313.34
2023-05-05T15:53:01.807Z,101321.22
2023-05-05T15:55:29.962Z,101325.41
2023-05-05T15:57:58.095Z,101327.92
2023-05-05T16:00:27.011Z,101344.99
2023-05-05T16:02:55.081Z,101349.93
2023-05-05T16:05:23.363Z,101353.30
2023-05-05T16:07:51.128Z,101368.27
2023-05-05T16:10:20.763Z,101375.30
2023-05-05T16:12:48.825Z,101397.30
2023-05-05T16:15:16.785Z,101424.12
2023-05-05T16:17:44.757Z,101410.64
2023-05-05T16:20:13.048Z,101419.80
2023-05-05T16:22:41.017Z,101437.65
2023-05-05T16:25:09.630Z,101434.80
2023-05-05T16:27:37.818Z,101445.34
2023-05-05T16:30:06.210Z,101452.92
2023-05-05T16:32:34.215Z,101452.20
2023-05-05T16:35:03.412Z,101444.06
2023-05-05T16:37:31.476Z,101485.20
2023-05-05T16:39:59.479Z,101492.45
2023-05-05T16:42:27.741Z,101504.13
2023-05-05T16:44:55.738Z,101492.38
2023-05-05T16:47:23.836Z,101515.96
2023-05-05T16:49:51.875Z,101513.38
2023-05-05T16:52:20.046Z,101507.66
2023-05-05T16:54:49.327Z,101485.72
2023-05-05T16:57:17.264Z,101470.19
2023-05-05T16:59:45.184Z,101460.51
2023-05-05T17:02:13.104Z,101470.15
2023-05-05T17:04:41.116Z,101487.77
2023-05-05T17:07:09.193Z,101496.77
2023-05-05T17:09:37.317Z,101499.91
2023-05-05T17:12:05.720Z,101514.23
2023-05-05T17:14:34.952Z,101528.52
2023-05-05T17:17:02.901Z,101547.51
2023-05-05T17:19:30.806Z,101544.73
2023-05-05T17:21:58.962Z,101549.96
2023-05-05T17:24:27.097Z,101546.59
2023-05-05T17:26:55.488Z,101545.38
2023-05-05T17:29:24.640Z,101541.73
2023-05-05T17:31:52.974Z,101545.84
2023-05-05T17:34:21.129Z,101542.61
2023-05-05T17:36:49.185Z,101554.51
2023-05-05T17:39:17.312Z,101541.37
2023-05-05T17:41:45.326Z,101545.09
2023-05-05T17:44:13.322Z,101553.76
2023-05-05T17:46:41.828Z,101555.06
2023-05-05T17:49:09.897Z,101560.00
2023-05-05T17:51:37.918Z,101551.27
2023-05-05T17:54:06.238Z,101560.30
2023-05-05T17:56:36.145Z,101563.17
2023-05-05T17:59:04.335Z,101561.93
2023-05-05T18:01:32.330Z,101563.92
2023-05-05T18:04:00.462Z,101561.80
2023-05-05T18:06:29.455Z,101559.74
2023-05-05T18:08:57.839Z,101562.62
2023-05-05T18:11:29.075Z,101569.22
2023-05-05T18:13:57.559Z,101565.52
2023-05-05T18:16:25.742Z,101577.72
2023-05-05T18:18:53.885Z,101578.48
2023-05-05T18:21:21.902Z,101576.35
2023-05-05T18:23:51.191Z,101577.20
2023-05-05T18:26:19.266Z,101576.74
2023-05-05T18:28:47.399Z,101577.10
2023-05-05T18:31:15.522Z,101577.49
2023-05-05T18:33:45.084Z,101578.60
2023-05-05T18:36:14.101Z,101581.88
2023-05-05T18:38:42.108Z,101585.05
2023-05-05T18:41:10.093Z,101580.05
2023-05-05T18:43:38.196Z,101581.71
2023-05-05T18:46:06.250Z,101578.54
2023-05-05T18:48:34.236Z,101575.66
2023-05-05T18:51:05.914Z,101584.30
2023-05-05T18:53:34.102Z,101581.41
2023-05-05T18:56:02.772Z,101572.69
2023-05-05T18:58:31.887Z,101574.71
2023-05-05T19:00:59.940Z,101578.34
2023-05-05T19:03:28.094Z,101573.87
2023-05-05T19:05:56.081Z,101574.26
2023-05-05T19:08:24.169Z,101586.62
2023-05-05T19:10:52.762Z,101593.22
2023-05-05T19:13:20.793Z,101599.40
2023-05-05T19:15:48.827Z,101604.30
2023-05-05T19:18:17.484Z,101606.37
2023-05-05T19:20:45.428Z,101603.09
2023-05-05T19:23:13.625Z,101610.55
2023-05-05T19:25:41.610Z,101602.27
2023-05-05T19:28:09.649Z,101596.95
2023-05-05T19:30:38.058Z,101601.07
2023-05-05T19:33:06.274Z,101602.27
2023-05-05T19:35:34.331Z,101605.61
2023-05-05T19:38:02.426Z,101609.80
2023-05-05T19:40:30.354Z,101614.73
2023-05-05T19:42:58.329Z,101626.18
2023-05-05T19:45:26.354Z,101627.75
2023-05-05T19:47:54.398Z,101629.35
2023-05-05T19:50:22.723Z,101630.92
2023-05-05T19:52:50.749Z,101635.86
2023-05-05T19:55:19.858Z,101639.12
2023-05-05T19:57:47.834Z,101645.24
2023-05-05T20:00:16.016Z,101656.32
2023-05-05T20:02:44.167Z,101647.66
2023-05-05T20:05:15.147Z,101651.42
2023-05-05T20:07:43.530Z,101645.24
2023-05-05T20:10:12.196Z,101645.73
2023-05-05T20:12:43.526Z,101651.09
2023-05-05T20:15:12.724Z,101649.91
2023-05-05T20:17:40.817Z,101644.52
2023-05-05T20:20:09.465Z,101659.66
2023-05-05T20:22:38.875Z,101661.23
2023-05-05T20:25:08.840Z,101661.98
2023-05-05T20:27:36.990Z,101656.52
2023-05-05T20:30:05.778Z,101661.82
2023-05-05T20:32:33.841Z,101653.41
2023-05-05T20:35:01.968Z,101660.02
2023-05-05T20:37:30.022Z,101653.80
2023-05-05T20:39:59.524Z,101649.62
2023-05-05T20:42:28.989Z,101647.82
2023-05-05T20:44:57.030Z,101660.97
2023-05-05T20:47:25.562Z,101663.26
2023-05-05T20:49:53.605Z,101660.64
2023-05-05T20:52:21.644Z,101661.75
2023-05-05T20:54:49.589Z,101661.62
2023-05-05T20:57:17.602Z,101657.34
2023-05-05T20:59:45.545Z,101655.57
2023-05-05T21:02:13.628Z,101650.08
2023-05-05T21:04:41.920Z,101650.34
2023-05-05T21:07:09.915Z,101653.97
2023-05-05T21:09:37.987Z,101644.36
2023-05-05T21:12:06.195Z,101644.75
2023-05-05T21:14:34.205Z,101640.07
2023-05-05T21:17:02.293Z,101644.88
2023-05-05T21:19:30.409Z,101635.98
2023-05-05T21:22:00.394Z,101646.81
2023-05-05T21:24:29.383Z,101640.20
2023-05-05T21:26:57.650Z,101642.66
2023-05-05T21:29:26.091Z,101641.22
2023-05-05T21:31:54.087Z,101644.45
2023-05-05T21:34:22.086Z,101644.33
2023-05-05T21:36:50.070Z,101643.02
2023-05-05T21:39:18.613Z,101644.59
2023-05-05T21:41:46.646Z,101641.25
2023-05-05T21:44:14.869Z,101643.64
2023-05-05T21:46:42.956Z,101642.33
2023-05-05T21:49:17.286Z,101645.57
2023-05-05T21:51:46.265Z,101639.32
2023-05-05T21:54:14.362Z,101632.65
2023-05-05T21:56:42.507Z,101633.37
2023-05-05T21:59:10.518Z,101637.78
2023-05-05T22:01:38.651Z,101643.54
2023-05-05T22:04:06.789Z,101639.71
2023-05-05T22:06:34.853Z,101637.20
2023-05-05T22:09:02.827Z,101629.77
2023-05-05T22:11:30.819Z,101629.28
2023-05-05T22:13:58.862Z,101630.76
2023-05-05T22:16:26.945Z,101628.59
2023-05-05T22:18:55.003Z,101634.22
2023-05-05T22:21:23.383Z,101635.30
2023-05-05T22:23:51.446Z,101636.02
2023-05-05T22:26:19.366Z,101635.17
2023-05-05T22:28:47.520Z,101634.84
2023-05-05T22:31:15.605Z,101637.33
2023-05-05T22:33:43.571Z,101625.82
2023-05-05T22:36:11.994Z,101625.00
2023-05-05T22:38:39.924Z,101623.79
2023-05-05T22:41:08.664Z,101626.31
2023-05-05T22:43:36.614Z,101613.98
2023-05-05T22:46:04.684Z,101629.19
2023-05-05T22:48:32.727Z,101614.70
2023-05-05T22:51:01.265Z,101616.60
2023-05-05T22:53:29.310Z,101612.41
2023-05-05T22:55:57.378Z,101609.54
2023-05-05T22:58:25.962Z,101609.08
2023-05-05T23:00:54.006Z,101613.13
2023-05-05T23:03:22.051Z,101610.13
2023-05-05T23:05:50.155Z,101606.30
2023-05-05T23:08:18.130Z,101607.15
2023-05-05T23:10:46.119Z,101606.79
2023-05-05T23:13:14.222Z,101608.69
2023-05-05T23:15:42.488Z,101603.32
2023-05-05T23:18:10.498Z,101597.93
2023-05-05T23:20:38.518Z,101598.29
2023-05-05T23:23:06.624Z,101610.13
2023-05-05T23:25:34.532Z,101603.42
2023-05-05T23:28:02.494Z,101593.97
2023-05-05T23:30:30.752Z,101600.05
2023-05-05T23:32:59.306Z,101601.62
2023-05-05T23:35:27.612Z,101608.69
2023-05-05T23:37:55.619Z,101602.93
2023-05-05T23:40:23.820Z,101601.75
2023-05-05T23:42:51.813Z,101604.27
2023-05-05T23:45:19.751Z,101596.49
2023-05-05T23:47:47.885Z,101595.64
2023-05-05T23:50:15.828Z,101601.75
2023-05-05T23:52:43.871Z,101602.12
2023-05-05T23:55:12.148Z,101583.90
2023-05-05T23:57:40.171Z,101587.23
